Time;durP1;ratioP1;P1;durP2;ratioP2;P2;SDS_P1;SDS_P2;PMS_P1;PMS_P2;Temp;Humidity;BMP_temperature;BMP_pressure;BME280_temperature;BME280_humidity;BME280_pressure;Samples;Min_cycle;Max_cycle;Signal;HPM_P1;HPM_P2
2023/12/25 00:00:20;;;;;;;;;25.00;23.00;;;;;;;;5100324;27;45450;-77
2023/12/25 00:02:46;;;;;;;;;23.25;22.25;;;;;;;;5100008;27;45495;-84
2023/12/25 00:05:11;;;;;;;;;23.75;22.50;;;;;;;;5099569;27;45854;-87
2023/12/25 00:07:36;;;;;;;;;22.25;20.50;;;;;;;;5099917;27;45366;-86
2023/12/25 00:10:02;;;;;;;;;13.50;13.25;;;;;;;;5099271;27;46182;-72
2023/12/25 00:12:27;;;;;;;;;11.25;7.25;;;;;;;;5100169;27;45283;-89
2023/12/25 00:14:53;;;;;;;;;6.50;5.25;;;;;;;;5100214;27;45467;-74
2023/12/25 00:17:18;;;;;;;;;5.75;5.75;;;;;;;;5099842;27;45509;-87
2023/12/25 00:19:44;;;;;;;;;6.00;5.25;;;;;;;;5099341;27;45378;-88
2023/12/25 00:22:09;;;;;;;;;5.00;3.00;;;;;;;;5099263;27;45357;-86
2023/12/25 00:24:34;;;;;;;;;5.75;5.00;;;;;;;;5099458;27;45331;-75
2023/12/25 00:27:00;;;;;;;;;5.00;3.00;;;;;;;;5099853;27;45460;-75
2023/12/25 00:29:25;;;;;;;;;5.25;4.50;;;;;;;;5099504;27;45621;-78
2023/12/25 00:31:50;;;;;;;;;5.00;4.50;;;;;;;;5098734;27;45755;-78
2023/12/25 00:34:16;;;;;;;;;5.00;3.00;;;;;;;;5100235;27;45640;-73
2023/12/25 00:36:41;;;;;;;;;5.00;4.00;;;;;;;;5098983;27;45371;-73
2023/12/25 00:39:08;;;;;;;;;7.50;6.00;;;;;;;;5098017;27;45476;-77
2023/12/25 00:41:33;;;;;;;;;3.00;3.00;;;;;;;;5100038;27;45585;-72
2023/12/25 00:43:58;;;;;;;;;3.00;3.00;;;;;;;;5092307;27;45448;-85
2023/12/25 00:46:25;;;;;;;;;6.50;6.00;;;;;;;;5095237;27;45309;-83
2023/12/25 00:48:50;;;;;;;;;2.50;2.00;;;;;;;;5098905;27;46602;-77
2023/12/25 00:51:16;;;;;;;;;1.00;1.00;;;;;;;;5099246;27;45372;-84
2023/12/25 00:53:42;;;;;;;;;1.00;1.00;;;;;;;;5099622;27;45225;-83
2023/12/25 00:56:08;;;;;;;;;2.00;1.75;;;;;;;;5099577;27;45453;-84
2023/12/25 00:58:33;;;;;;;;;0.75;0.75;;;;;;;;5099055;27;46115;-83
2023/12/25 01:00:59;;;;;;;;;2.50;1.00;;;;;;;;5099184;27;45551;-84
2023/12/25 01:03:24;;;;;;;;;1.00;1.00;;;;;;;;5099267;27;45489;-83
2023/12/25 01:05:49;;;;;;;;;1.00;1.00;;;;;;;;5099540;27;45578;-84
2023/12/25 01:08:15;;;;;;;;;1.00;1.00;;;;;;;;5099034;27;45627;-83
2023/12/25 01:10:40;;;;;;;;;2.00;2.00;;;;;;;;5098998;27;45413;-83
2023/12/25 01:13:06;;;;;;;;;1.00;1.00;;;;;;;;5098961;27;45451;-83
2023/12/25 01:15:31;;;;;;;;;4.75;4.50;;;;;;;;5098927;27;45412;-71
2023/12/25 01:17:56;;;;;;;;;6.00;5.00;;;;;;;;5098815;27;45985;-84
2023/12/25 01:20:22;;;;;;;;;6.75;6.50;;;;;;;;5098629;27;45518;-71
2023/12/25 01:22:47;;;;;;;;;12.00;10.00;;;;;;;;5098997;27;45784;-71
2023/12/25 01:25:12;;;;;;;;;6.00;5.25;;;;;;;;5099035;27;45392;-71
2023/12/25 01:27:41;;;;;;;;;10.00;6.75;;;;;;;;5098641;27;45895;-83
2023/12/25 01:30:07;;;;;;;;;5.00;3.00;;;;;;;;5098571;27;45413;-78
2023/12/25 01:32:33;;;;;;;;;5.00;2.25;;;;;;;;5098660;27;45490;-83
2023/12/25 01:34:58;;;;;;;;;4.00;2.00;;;;;;;;5098480;27;45394;-82
2023/12/25 01:37:23;;;;;;;;;1.25;1.25;;;;;;;;5098367;27;45993;-71
2023/12/25 01:39:49;;;;;;;;;2.00;2.00;;;;;;;;5098492;27;45364;-71
2023/12/25 01:42:15;;;;;;;;;3.00;1.75;;;;;;;;5098141;27;45537;-71
2023/12/25 01:44:40;;;;;;;;;5.00;2.50;;;;;;;;5099096;27;45443;-70
2023/12/25 01:47:05;;;;;;;;;3.50;3.50;;;;;;;;5098720;27;45542;-71
2023/12/25 01:49:31;;;;;;;;;6.75;5.75;;;;;;;;5098434;27;45448;-71
2023/12/25 01:51:56;;;;;;;;;6.25;5.00;;;;;;;;5099225;27;45443;-71
2023/12/25 01:54:22;;;;;;;;;9.00;7.00;;;;;;;;5099391;27;45398;-71
2023/12/25 01:56:48;;;;;;;;;12.00;10.50;;;;;;;;5099086;27;45908;-85
2023/12/25 01:59:13;;;;;;;;;18.50;18.00;;;;;;;;5098914;27;45259;-75
2023/12/25 02:01:39;;;;;;;;;13.50;9.00;;;;;;;;5099085;27;45583;-74
2023/12/25 02:04:04;;;;;;;;;7.00;6.00;;;;;;;;5099261;27;45411;-84
2023/12/25 02:06:33;;;;;;;;;2.75;2.25;;;;;;;;5098720;27;45369;-81
2023/12/25 02:09:02;;;;;;;;;2.25;2.00;;;;;;;;5099096;27;45304;-82
2023/12/25 02:11:28;;;;;;;;;1.75;0.75;;;;;;;;5098883;27;45310;-71
2023/12/25 02:13:56;;;;;;;;;2.75;2.00;;;;;;;;5099249;27;45437;-71
2023/12/25 02:16:22;;;;;;;;;2.00;1.25;;;;;;;;5099049;27;45312;-71
2023/12/25 02:18:48;;;;;;;;;1.75;1.00;;;;;;;;5098640;27;45279;-71
2023/12/25 02:21:13;;;;;;;;;4.75;4.00;;;;;;;;5099015;27;45508;-71
2023/12/25 02:23:41;;;;;;;;;12.25;7.00;;;;;;;;5098985;27;45618;-71
2023/12/25 02:26:07;;;;;;;;;11.50;11.50;;;;;;;;5098537;27;45497;-72
2023/12/25 02:28:33;;;;;;;;;6.00;6.00;;;;;;;;5098519;27;45568;-71
2023/12/25 02:30:58;;;;;;;;;9.50;9.00;;;;;;;;5098725;27;45512;-71
2023/12/25 02:33:24;;;;;;;;;0.00;0.00;;;;;;;;5098916;27;45487;-71
2023/12/25 02:35:49;;;;;;;;;1.00;1.00;;;;;;;;5098308;27;45965;-71
2023/12/25 02:38:14;;;;;;;;;1.50;1.50;;;;;;;;5098426;27;45467;-71
2023/12/25 02:40:40;;;;;;;;;1.50;1.50;;;;;;;;5098710;27;45457;-71
2023/12/25 02:43:07;;;;;;;;;0.00;0.00;;;;;;;;5098536;27;45555;-71
2023/12/25 02:45:32;;;;;;;;;8.50;7.00;;;;;;;;5098124;27;45206;-71
2023/12/25 02:47:57;;;;;;;;;5.50;5.50;;;;;;;;5098057;27;45325;-71
2023/12/25 02:50:23;;;;;;;;;16.00;14.00;;;;;;;;5097203;27;45479;-71
2023/12/25 02:52:48;;;;;;;;;9.00;7.00;;;;;;;;5098462;27;45505;-72
2023/12/25 02:55:13;;;;;;;;;18.00;16.00;;;;;;;;5098098;27;46298;-71
2023/12/25 02:57:39;;;;;;;;;5.25;5.25;;;;;;;;5098251;27;45417;-71
2023/12/25 03:00:05;;;;;;;;;7.00;6.00;;;;;;;;5098080;27;45413;-71
2023/12/25 03:02:30;;;;;;;;;3.00;2.75;;;;;;;;5097605;27;45400;-71
2023/12/25 03:04:56;;;;;;;;;8.25;7.25;;;;;;;;5098116;27;45409;-71
2023/12/25 03:07:21;;;;;;;;;10.25;7.25;;;;;;;;5098008;27;45482;-71
2023/12/25 03:09:46;;;;;;;;;5.25;3.50;;;;;;;;5098331;27;45523;-71
2023/12/25 03:12:12;;;;;;;;;19.00;14.50;;;;;;;;5098375;27;45294;-71
2023/12/25 03:14:37;;;;;;;;;12.75;9.75;;;;;;;;5097819;27;46064;-71
2023/12/25 03:17:03;;;;;;;;;8.00;8.00;;;;;;;;5097822;27;45312;-71
2023/12/25 03:19:29;;;;;;;;;6.00;5.50;;;;;;;;5097854;27;45344;-71
2023/12/25 03:21:54;;;;;;;;;1.00;1.00;;;;;;;;5098248;27;45278;-71
2023/12/25 03:24:19;;;;;;;;;1.25;0.00;;;;;;;;5097698;27;45960;-71
2023/12/25 03:26:45;;;;;;;;;1.00;0.00;;;;;;;;5097857;27;45403;-71
2023/12/25 03:29:10;;;;;;;;;1.50;0.75;;;;;;;;5097863;27;45666;-71
2023/12/25 03:31:35;;;;;;;;;2.50;2.00;;;;;;;;5098051;27;45459;-71
2023/12/25 03:34:01;;;;;;;;;2.25;1.75;;;;;;;;5097480;27;46040;-72
2023/12/25 03:36:26;;;;;;;;;2.00;2.00;;;;;;;;5097991;27;45230;-71
2023/12/25 03:38:52;;;;;;;;;5.75;3.00;;;;;;;;5097734;27;45161;-71
2023/12/25 03:41:17;;;;;;;;;5.75;5.75;;;;;;;;5097922;27;45203;-71
2023/12/25 03:43:43;;;;;;;;;11.75;10.00;;;;;;;;5097251;27;46158;-71
2023/12/25 03:46:08;;;;;;;;;10.00;9.00;;;;;;;;5097451;27;45434;-71
2023/12/25 03:48:33;;;;;;;;;13.75;13.25;;;;;;;;5097451;27;45501;-71
2023/12/25 03:50:59;;;;;;;;;13.25;12.75;;;;;;;;5098130;27;45309;-72
2023/12/25 03:53:24;;;;;;;;;15.50;14.25;;;;;;;;5097486;27;46100;-70
2023/12/25 03:55:50;;;;;;;;;14.50;12.25;;;;;;;;5097504;27;45400;-71
2023/12/25 03:58:15;;;;;;;;;14.50;12.25;;;;;;;;5097496;27;45462;-71
2023/12/25 04:00:40;;;;;;;;;8.50;6.00;;;;;;;;5097704;27;45308;-71
2023/12/25 04:03:06;;;;;;;;;5.00;3.00;;;;;;;;5097139;27;45466;-71
2023/12/25 04:05:31;;;;;;;;;1.00;1.00;;;;;;;;5097255;27;45420;-71
2023/12/25 04:07:57;;;;;;;;;2.00;1.75;;;;;;;;5097862;27;45504;-71
2023/12/25 04:10:22;;;;;;;;;0.00;0.00;;;;;;;;5097725;27;45490;-71
2023/12/25 04:12:47;;;;;;;;;0.75;0.75;;;;;;;;5098982;27;45484;-71
2023/12/25 04:15:13;;;;;;;;;1.00;0.00;;;;;;;;5100809;27;45414;-71
2023/12/25 04:17:38;;;;;;;;;1.00;0.75;;;;;;;;5100745;27;45512;-71
2023/12/25 04:20:03;;;;;;;;;21.50;20.25;;;;;;;;5100870;27;45250;-71
2023/12/25 04:22:29;;;;;;;;;8.75;8.00;;;;;;;;5100680;27;45934;-71
2023/12/25 04:24:54;;;;;;;;;3.00;2.50;;;;;;;;5100469;27;45567;-71
2023/12/25 04:27:20;;;;;;;;;2.75;2.00;;;;;;;;5100634;27;45250;-85
2023/12/25 04:29:45;;;;;;;;;1.00;1.00;;;;;;;;5100785;27;45485;-79
2023/12/25 04:32:10;;;;;;;;;3.00;2.00;;;;;;;;5100370;27;45357;-71
2023/12/25 04:34:36;;;;;;;;;2.00;1.75;;;;;;;;5099031;27;45337;-71
2023/12/25 04:37:01;;;;;;;;;5.50;5.00;;;;;;;;5100897;27;45160;-80
2023/12/25 04:39:27;;;;;;;;;3.50;3.00;;;;;;;;5101209;27;45341;-84
2023/12/25 04:41:52;;;;;;;;;2.00;1.25;;;;;;;;5100293;27;45613;-71
2023/12/25 04:44:18;;;;;;;;;1.00;1.00;;;;;;;;5100291;27;45226;-71
2023/12/25 04:46:43;;;;;;;;;3.00;3.00;;;;;;;;5100474;27;45417;-71
2023/12/25 04:49:08;;;;;;;;;1.00;1.00;;;;;;;;5100450;27;45337;-71
2023/12/25 04:51:34;;;;;;;;;1.25;0.75;;;;;;;;5100165;27;45223;-71
2023/12/25 04:53:59;;;;;;;;;1.00;1.00;;;;;;;;5100391;27;45475;-71
2023/12/25 04:56:24;;;;;;;;;0.00;0.00;;;;;;;;5100234;27;45613;-71
2023/12/25 04:58:50;;;;;;;;;0.00;0.00;;;;;;;;5100428;27;45482;-86
2023/12/25 05:01:15;;;;;;;;;0.00;0.00;;;;;;;;5099818;27;46095;-85
2023/12/25 05:03:41;;;;;;;;;0.00;0.00;;;;;;;;5099821;27;45427;-71
2023/12/25 05:06:06;;;;;;;;;0.00;0.00;;;;;;;;5100077;27;45373;-71
2023/12/25 05:08:31;;;;;;;;;0.00;0.00;;;;;;;;5100355;27;45404;-71
2023/12/25 05:10:57;;;;;;;;;0.00;0.00;;;;;;;;5099668;27;45337;-84
2023/12/25 05:13:22;;;;;;;;;1.50;1.25;;;;;;;;5099832;27;45474;-71
2023/12/25 05:15:47;;;;;;;;;1.75;1.75;;;;;;;;5099777;27;45392;-71
2023/12/25 05:18:13;;;;;;;;;1.00;0.25;;;;;;;;5100013;27;45501;-71
2023/12/25 05:20:38;;;;;;;;;1.00;1.00;;;;;;;;5099552;27;45483;-71
2023/12/25 05:23:03;;;;;;;;;0.00;0.00;;;;;;;;5099896;27;45392;-70
2023/12/25 05:25:29;;;;;;;;;1.00;1.00;;;;;;;;5098987;27;45421;-71
2023/12/25 05:27:54;;;;;;;;;1.00;0.75;;;;;;;;5098468;27;45525;-71
2023/12/25 05:30:19;;;;;;;;;0.00;0.00;;;;;;;;5099544;27;45967;-70
2023/12/25 05:32:45;;;;;;;;;0.00;0.00;;;;;;;;5098173;27;45997;-71
2023/12/25 05:35:10;;;;;;;;;0.00;0.00;;;;;;;;5099774;27;45337;-71
2023/12/25 05:37:36;;;;;;;;;0.00;0.00;;;;;;;;5099795;27;45299;-71
2023/12/25 05:40:02;;;;;;;;;0.00;0.00;;;;;;;;5099660;27;46086;-71
2023/12/25 05:42:27;;;;;;;;;0.00;0.00;;;;;;;;5099314;27;45332;-72
2023/12/25 05:44:52;;;;;;;;;0.00;0.00;;;;;;;;5099422;27;45343;-71
2023/12/25 05:47:18;;;;;;;;;1.25;1.00;;;;;;;;5099491;27;45237;-71
2023/12/25 05:49:43;;;;;;;;;1.25;1.25;;;;;;;;5099179;27;45332;-71
2023/12/25 05:52:09;;;;;;;;;1.25;1.25;;;;;;;;5099124;27;45281;-71
2023/12/25 05:54:34;;;;;;;;;0.75;0.50;;;;;;;;5099528;27;45448;-71
2023/12/25 05:56:59;;;;;;;;;0.00;0.00;;;;;;;;5099385;27;45218;-71
2023/12/25 05:59:25;;;;;;;;;0.00;0.00;;;;;;;;5098969;27;46056;-71
2023/12/25 06:01:50;;;;;;;;;0.00;0.00;;;;;;;;5099121;27;45467;-72
2023/12/25 06:04:15;;;;;;;;;0.00;0.00;;;;;;;;5099104;27;45285;-72
2023/12/25 06:06:42;;;;;;;;;1.00;0.00;;;;;;;;5098036;27;45573;-71
2023/12/25 06:09:10;;;;;;;;;0.00;0.00;;;;;;;;5098903;27;46184;-72
2023/12/25 06:11:35;;;;;;;;;0.00;0.00;;;;;;;;5099218;27;45440;-71
2023/12/25 06:14:01;;;;;;;;;0.00;0.00;;;;;;;;5098807;27;45416;-71
2023/12/25 06:16:26;;;;;;;;;0.00;0.00;;;;;;;;5097323;27;45577;-71
2023/12/25 06:18:51;;;;;;;;;0.00;0.00;;;;;;;;5098661;27;46019;-71
2023/12/25 06:21:17;;;;;;;;;0.00;0.00;;;;;;;;5098844;27;45344;-71
2023/12/25 06:23:42;;;;;;;;;0.00;0.00;;;;;;;;5098660;27;45259;-71
2023/12/25 06:26:08;;;;;;;;;0.00;0.00;;;;;;;;5099404;27;45709;-71
2023/12/25 06:28:33;;;;;;;;;1.00;0.00;;;;;;;;5098975;27;45411;-71
2023/12/25 06:30:58;;;;;;;;;0.00;0.00;;;;;;;;5098508;27;45228;-71
2023/12/25 06:33:24;;;;;;;;;1.50;1.00;;;;;;;;5098641;27;45368;-71
2023/12/25 06:35:49;;;;;;;;;0.50;0.00;;;;;;;;5097558;27;45249;-71
2023/12/25 06:38:14;;;;;;;;;0.00;0.00;;;;;;;;5098487;27;45486;-71
2023/12/25 06:40:40;;;;;;;;;0.00;0.00;;;;;;;;5098478;27;45342;-71
2023/12/25 06:43:06;;;;;;;;;0.00;0.00;;;;;;;;5098901;27;45415;-71
2023/12/25 06:45:31;;;;;;;;;0.00;0.00;;;;;;;;5098666;27;45389;-71
2023/12/25 06:47:57;;;;;;;;;0.00;0.00;;;;;;;;5098217;27;45352;-71
2023/12/25 06:50:22;;;;;;;;;0.00;0.00;;;;;;;;5098319;27;45508;-71
2023/12/25 06:52:48;;;;;;;;;0.00;0.00;;;;;;;;5098468;27;45301;-71
2023/12/25 06:55:14;;;;;;;;;0.00;0.00;;;;;;;;5098652;27;45504;-71
2023/12/25 06:57:39;;;;;;;;;0.00;0.00;;;;;;;;5098370;27;45471;-71
2023/12/25 07:00:05;;;;;;;;;0.00;0.00;;;;;;;;5098223;27;45492;-71
2023/12/25 07:02:30;;;;;;;;;0.00;0.00;;;;;;;;5098066;27;45282;-71
2023/12/25 07:04:56;;;;;;;;;2.00;2.00;;;;;;;;5098307;27;45479;-71
2023/12/25 07:07:21;;;;;;;;;2.00;2.00;;;;;;;;5097980;27;46058;-71
2023/12/25 07:09:47;;;;;;;;;3.25;3.25;;;;;;;;5097886;27;45487;-71
2023/12/25 07:12:12;;;;;;;;;4.00;3.25;;;;;;;;5097973;27;45490;-71
2023/12/25 07:14:46;;;;;;;;;1.50;1.50;;;;;;;;5098409;27;45249;-71
2023/12/25 07:17:12;;;;;;;;;1.25;1.00;;;;;;;;5097565;27;45222;-71
2023/12/25 07:19:38;;;;;;;;;6.00;5.25;;;;;;;;5097961;27;45348;-71
2023/12/25 07:22:04;;;;;;;;;0.00;0.00;;;;;;;;5097825;27;45469;-71
2023/12/25 07:24:29;;;;;;;;;11.75;10.25;;;;;;;;5098111;27;45247;-71
2023/12/25 07:26:54;;;;;;;;;6.00;5.00;;;;;;;;5097542;27;46085;-71
2023/12/25 07:29:20;;;;;;;;;1.00;1.00;;;;;;;;5096259;27;45310;-71
2023/12/25 07:31:45;;;;;;;;;8.75;8.50;;;;;;;;5096977;27;45486;-71
2023/12/25 07:34:11;;;;;;;;;12.50;10.00;;;;;;;;5097369;27;45462;-83
2023/12/25 07:36:36;;;;;;;;;9.25;9.25;;;;;;;;5096685;27;45781;-71
2023/12/25 07:39:01;;;;;;;;;11.25;10.25;;;;;;;;5096839;27;45389;-71
2023/12/25 07:41:27;;;;;;;;;15.25;13.00;;;;;;;;5096963;27;45455;-82
2023/12/25 07:43:52;;;;;;;;;8.50;8.50;;;;;;;;5097051;27;45480;-81
2023/12/25 07:46:18;;;;;;;;;7.25;5.00;;;;;;;;5095326;27;46138;-71
2023/12/25 07:48:43;;;;;;;;;10.75;9.00;;;;;;;;5100183;27;45529;-71
2023/12/25 07:51:08;;;;;;;;;10.75;10.75;;;;;;;;5100760;27;45315;-71
2023/12/25 07:53:34;;;;;;;;;37.75;34.25;;;;;;;;5099122;27;46349;-71
2023/12/25 07:55:59;;;;;;;;;20.25;17.00;;;;;;;;5097290;27;46007;-72
2023/12/25 07:58:25;;;;;;;;;18.00;17.25;;;;;;;;5098798;27;45801;-83
2023/12/25 08:00:50;;;;;;;;;46.50;34.00;;;;;;;;5100224;27;45413;-71
2023/12/25 08:03:15;;;;;;;;;11.25;9.50;;;;;;;;5100120;27;45530;-71
2023/12/25 08:05:41;;;;;;;;;5.25;4.50;;;;;;;;5100303;27;45917;-71
2023/12/25 08:08:07;;;;;;;;;2.00;2.00;;;;;;;;5098670;27;45520;-82
2023/12/25 08:10:32;;;;;;;;;3.25;3.25;;;;;;;;5099362;27;45559;-82
2023/12/25 08:12:58;;;;;;;;;3.25;3.25;;;;;;;;5099393;27;45568;-83
2023/12/25 08:15:25;;;;;;;;;15.75;14.75;;;;;;;;5098467;27;46135;-71
2023/12/25 08:17:51;;;;;;;;;6.50;5.00;;;;;;;;5098047;27;45541;-82
2023/12/25 08:20:16;;;;;;;;;3.25;3.25;;;;;;;;5097055;27;45893;-72
2023/12/25 08:22:42;;;;;;;;;8.25;6.75;;;;;;;;5098293;27;45535;-81
2023/12/25 08:25:07;;;;;;;;;17.00;15.25;;;;;;;;5099114;27;45356;-73
2023/12/25 08:27:32;;;;;;;;;76.25;55.50;;;;;;;;5099448;27;45353;-82
2023/12/25 08:29:58;;;;;;;;;78.00;57.00;;;;;;;;5099337;27;45535;-71
2023/12/25 08:32:23;;;;;;;;;67.50;50.25;;;;;;;;5096066;27;45400;-72
2023/12/25 08:34:49;;;;;;;;;72.00;57.00;;;;;;;;5099161;27;45555;-84
2023/12/25 08:37:14;;;;;;;;;90.25;65.75;;;;;;;;5099854;27;45794;-73
2023/12/25 08:39:39;;;;;;;;;75.00;58.50;;;;;;;;5096553;27;45402;-77
2023/12/25 08:42:05;;;;;;;;;102.67;88.00;;;;;;;;5099598;27;45515;-72
2023/12/25 08:44:32;;;;;;;;;100.33;78.67;;;;;;;;5097346;27;46318;-79
2023/12/25 08:46:57;;;;;;;;;101.67;86.33;;;;;;;;5099732;27;45459;-72
2023/12/25 08:49:23;;;;;;;;;122.33;97.67;;;;;;;;5099743;27;45437;-72
2023/12/25 08:51:48;;;;;;;;;89.00;67.00;;;;;;;;5099858;27;45242;-76
2023/12/25 08:54:14;;;;;;;;;78.00;59.75;;;;;;;;5097981;27;45668;-75
2023/12/25 08:56:39;;;;;;;;;72.00;56.50;;;;;;;;5098982;27;45421;-72
2023/12/25 08:59:06;;;;;;;;;62.25;49.25;;;;;;;;5097765;27;45481;-72
2023/12/25 09:01:32;;;;;;;;;41.00;33.25;;;;;;;;5097418;27;45449;-73
2023/12/25 09:03:57;;;;;;;;;50.00;40.75;;;;;;;;5098954;27;46009;-72
2023/12/25 09:06:23;;;;;;;;;42.75;38.25;;;;;;;;5098956;27;45335;-72
2023/12/25 09:08:49;;;;;;;;;41.00;28.75;;;;;;;;5099114;27;45468;-71
2023/12/25 09:11:14;;;;;;;;;33.75;30.50;;;;;;;;5098823;27;45509;-72
2023/12/25 09:13:40;;;;;;;;;25.50;22.25;;;;;;;;5097972;27;46025;-71
2023/12/25 09:16:05;;;;;;;;;19.00;15.75;;;;;;;;5098643;27;45401;-71
2023/12/25 09:18:30;;;;;;;;;30.25;23.75;;;;;;;;5098831;27;45523;-72
2023/12/25 09:20:57;;;;;;;;;6.75;6.00;;;;;;;;5098602;27;45311;-77
2023/12/25 09:23:22;;;;;;;;;9.00;7.25;;;;;;;;5098375;27;45385;-77
2023/12/25 09:25:48;;;;;;;;;4.75;3.50;;;;;;;;5096549;27;45400;-77
2023/12/25 09:28:13;;;;;;;;;3.00;2.00;;;;;;;;5098031;27;45494;-72
2023/12/25 09:30:39;;;;;;;;;1.75;1.00;;;;;;;;5097052;27;45496;-73
2023/12/25 09:33:04;;;;;;;;;2.00;2.00;;;;;;;;5098186;27;46278;-73
2023/12/25 09:35:30;;;;;;;;;0.75;0.50;;;;;;;;5097680;27;45439;-81
2023/12/25 09:37:56;;;;;;;;;2.00;2.00;;;;;;;;5098160;27;45459;-72
2023/12/25 09:40:21;;;;;;;;;43.25;36.00;;;;;;;;5096341;27;45519;-72
2023/12/25 09:42:49;;;;;;;;;38.75;31.50;;;;;;;;5096608;27;45498;-74
2023/12/25 09:45:15;;;;;;;;;67.00;51.00;;;;;;;;5098004;27;45630;-72
2023/12/25 09:47:41;;;;;;;;;43.75;34.75;;;;;;;;5098127;27;45439;-72
2023/12/25 09:50:07;;;;;;;;;55.75;43.25;;;;;;;;5097468;27;45346;-73
2023/12/25 09:52:32;;;;;;;;;13.75;10.75;;;;;;;;5097275;27;45439;-71
2023/12/25 09:54:57;;;;;;;;;22.25;19.00;;;;;;;;5096585;27;45229;-72
2023/12/25 09:57:24;;;;;;;;;16.25;14.75;;;;;;;;5095886;27;45416;-73
2023/12/25 09:59:52;;;;;;;;;2.00;2.00;;;;;;;;5097969;27;45381;-73
2023/12/25 10:02:20;;;;;;;;;2.00;2.00;;;;;;;;5096549;27;46310;-73
2023/12/25 10:04:46;;;;;;;;;1.00;1.00;;;;;;;;5096912;27;45532;-72
2023/12/25 10:07:11;;;;;;;;;3.00;3.00;;;;;;;;5097245;27;45515;-72
2023/12/25 10:09:38;;;;;;;;;4.00;4.00;;;;;;;;5095801;27;45530;-73
2023/12/25 10:12:04;;;;;;;;;3.00;2.33;;;;;;;;5096494;27;46277;-72
2023/12/25 10:14:29;;;;;;;;;2.33;2.00;;;;;;;;5096717;27;45251;-73
2023/12/25 10:16:57;;;;;;;;;1.00;0.33;;;;;;;;5094702;27;45561;-81
2023/12/25 10:19:23;;;;;;;;;1.67;1.00;;;;;;;;5097050;27;45462;-71
2023/12/25 10:21:50;;;;;;;;;4.00;4.00;;;;;;;;5096403;27;46044;-72
2023/12/25 10:24:16;;;;;;;;;5.00;4.00;;;;;;;;5095284;27;45499;-72
2023/12/25 10:26:44;;;;;;;;;2.00;1.33;;;;;;;;5096539;27;45305;-72
2023/12/25 10:29:10;;;;;;;;;0.00;0.00;;;;;;;;5094563;27;45437;-72
2023/12/25 10:31:37;;;;;;;;;2.67;2.00;;;;;;;;5096319;27;45989;-72
2023/12/25 10:34:03;;;;;;;;;19.25;15.50;;;;;;;;5096248;27;45446;-72
2023/12/25 10:36:28;;;;;;;;;2.00;2.00;;;;;;;;5094702;27;45478;-72
2023/12/25 10:38:53;;;;;;;;;5.00;3.00;;;;;;;;5096060;27;45502;-76
2023/12/25 10:41:27;;;;;;;;;3.67;2.67;;;;;;;;5094193;27;46711;-79
2023/12/25 10:43:53;;;;;;;;;1.00;0.00;;;;;;;;5094641;27;45400;-73
2023/12/25 10:46:20;;;;;;;;;0.00;0.00;;;;;;;;5094537;27;45298;-74
2023/12/25 10:48:49;;;;;;;;;3.00;2.00;;;;;;;;5096387;27;45381;-72
2023/12/25 10:51:20;;;;;;;;;2.00;2.00;;;;;;;;5098234;27;45423;-72
2023/12/25 10:53:45;;;;;;;;;4.67;4.00;;;;;;;;5092164;27;45561;-72
2023/12/25 10:56:11;;;;;;;;;3.00;3.00;;;;;;;;5077571;28;45323;-72
2023/12/25 10:58:37;;;;;;;;;6.00;5.33;;;;;;;;5077420;28;45478;-72
2023/12/25 11:01:02;;;;;;;;;15.00;13.75;;;;;;;;5077299;28;46568;-72
2023/12/25 11:03:28;;;;;;;;;25.75;24.50;;;;;;;;5084833;27;45409;-72
2023/12/25 11:05:54;;;;;;;;;12.25;11.75;;;;;;;;5097900;27;45387;-72
2023/12/25 11:08:20;;;;;;;;;6.00;5.00;;;;;;;;5098307;27;45337;-76
2023/12/25 11:10:45;;;;;;;;;1.00;1.00;;;;;;;;5096000;27;46143;-71
2023/12/25 11:13:12;;;;;;;;;1.33;1.33;;;;;;;;5097520;27;45348;-71
2023/12/25 11:15:38;;;;;;;;;2.00;2.00;;;;;;;;5097479;27;45545;-77
2023/12/25 11:18:09;;;;;;;;;1.00;1.00;;;;;;;;5097891;27;45432;-78
2023/12/25 11:20:34;;;;;;;;;1.00;1.00;;;;;;;;5097652;27;45473;-80
2023/12/25 11:23:02;;;;;;;;;1.00;1.00;;;;;;;;5096738;27;45521;-76
2023/12/25 11:25:32;;;;;;;;;1.00;1.00;;;;;;;;5096544;27;45460;-72
2023/12/25 11:27:58;;;;;;;;;1.33;1.33;;;;;;;;5097776;27;45621;-81
2023/12/25 11:30:24;;;;;;;;;4.00;3.00;;;;;;;;5097282;27;46085;-83
2023/12/25 11:32:50;;;;;;;;;3.00;3.00;;;;;;;;5096968;27;45345;-72
2023/12/25 11:35:28;;;;;;;;;2.00;2.00;;;;;;;;5098043;27;45308;-72
2023/12/25 11:38:12;;;;;;;;;5.00;4.00;;;;;;;;5097675;27;45226;-72
2023/12/25 11:40:40;;;;;;;;;4.33;4.00;;;;;;;;5097405;27;46403;-72
2023/12/25 11:43:08;;;;;;;;;4.00;3.00;;;;;;;;5097375;27;45331;-72
2023/12/25 11:45:36;;;;;;;;;5.00;5.00;;;;;;;;5097039;27;45502;-72
2023/12/25 11:48:02;;;;;;;;;9.00;8.25;;;;;;;;5097581;27;45327;-74
2023/12/25 11:50:27;;;;;;;;;9.67;8.67;;;;;;;;5097190;27;45365;-72
2023/12/25 11:52:56;;;;;;;;;4.33;4.33;;;;;;;;5097198;27;45301;-72
2023/12/25 11:55:25;;;;;;;;;3.00;3.00;;;;;;;;5097435;27;45507;-72
2023/12/25 11:57:51;;;;;;;;;4.00;3.00;;;;;;;;5097564;27;45463;-72
2023/12/25 12:00:23;;;;;;;;;5.00;3.00;;;;;;;;5097431;27;45334;-72
2023/12/25 12:02:49;;;;;;;;;2.67;2.00;;;;;;;;5097118;27;45325;-73
2023/12/25 12:05:15;;;;;;;;;4.00;4.00;;;;;;;;5097427;27;45503;-72
2023/12/25 12:07:41;;;;;;;;;7.33;7.00;;;;;;;;5097473;27;45497;-72
2023/12/25 12:10:07;;;;;;;;;8.00;6.67;;;;;;;;5097188;27;45325;-72
2023/12/25 12:12:32;;;;;;;;;13.00;12.33;;;;;;;;5097234;27;45439;-72
2023/12/25 12:14:58;;;;;;;;;3.67;2.67;;;;;;;;5097142;27;45310;-72
2023/12/25 12:17:23;;;;;;;;;4.33;4.00;;;;;;;;5097310;27;45360;-72
2023/12/25 12:19:49;;;;;;;;;2.67;2.67;;;;;;;;5097357;27;45332;-72
2023/12/25 12:22:16;;;;;;;;;10.33;9.67;;;;;;;;5097470;27;45238;-72
2023/12/25 12:24:41;;;;;;;;;19.00;15.33;;;;;;;;5096995;27;45401;-72
2023/12/25 12:27:08;;;;;;;;;8.00;7.00;;;;;;;;5097418;27;45490;-73
2023/12/25 12:29:34;;;;;;;;;11.67;11.00;;;;;;;;5096633;27;46315;-72
2023/12/25 12:31:59;;;;;;;;;10.67;10.00;;;;;;;;5096563;27;45311;-73
2023/12/25 12:34:25;;;;;;;;;3.33;3.33;;;;;;;;5098257;27;45414;-72
2023/12/25 12:37:00;;;;;;;;;2.00;2.00;;;;;;;;5100653;27;45331;-73
2023/12/25 12:39:26;;;;;;;;;0.00;0.00;;;;;;;;5100338;27;46274;-72
2023/12/25 12:41:52;;;;;;;;;0.00;0.00;;;;;;;;5100264;27;45463;-73
2023/12/25 12:44:18;;;;;;;;;0.00;0.00;;;;;;;;5100668;27;45411;-72
2023/12/25 12:46:43;;;;;;;;;1.00;0.00;;;;;;;;5100275;27;45299;-72
2023/12/25 12:49:08;;;;;;;;;1.00;1.00;;;;;;;;5100049;27;45471;-73
2023/12/25 12:51:34;;;;;;;;;0.33;0.33;;;;;;;;5099963;27;45386;-73
2023/12/25 12:53:59;;;;;;;;;1.00;1.00;;;;;;;;5100131;27;45439;-73
2023/12/25 12:56:28;;;;;;;;;1.00;0.00;;;;;;;;5100504;27;45431;-72
2023/12/25 12:58:53;;;;;;;;;0.67;0.67;;;;;;;;5099999;27;45562;-72
2023/12/25 13:01:19;;;;;;;;;0.33;0.00;;;;;;;;5100177;27;45485;-73
2023/12/25 13:03:46;;;;;;;;;0.00;0.00;;;;;;;;5100106;27;45380;-73
2023/12/25 13:06:11;;;;;;;;;1.00;1.00;;;;;;;;5100293;27;45435;-73
2023/12/25 13:08:37;;;;;;;;;2.00;1.00;;;;;;;;5100155;27;45763;-72
2023/12/25 13:11:02;;;;;;;;;2.00;2.00;;;;;;;;5099718;27;45381;-73
2023/12/25 13:13:29;;;;;;;;;5.00;4.33;;;;;;;;5099795;27;45483;-73
2023/12/25 13:15:54;;;;;;;;;2.00;1.33;;;;;;;;5099182;27;45473;-73
2023/12/25 13:18:20;;;;;;;;;3.00;3.00;;;;;;;;5099947;27;46013;-72
2023/12/25 13:20:45;;;;;;;;;1.67;1.00;;;;;;;;5099753;27;45322;-75
2023/12/25 13:23:11;;;;;;;;;1.00;1.00;;;;;;;;5099845;27;45388;-72
2023/12/25 13:25:37;;;;;;;;;2.00;1.00;;;;;;;;5099918;27;45439;-72
2023/12/25 13:28:03;;;;;;;;;1.00;1.00;;;;;;;;5099578;27;45414;-73
2023/12/25 13:30:28;;;;;;;;;2.00;1.67;;;;;;;;5099618;27;45478;-72
2023/12/25 13:32:53;;;;;;;;;1.00;1.00;;;;;;;;5099952;27;45393;-73
2023/12/25 13:35:19;;;;;;;;;6.00;5.33;;;;;;;;5098640;27;45477;-72
2023/12/25 13:37:44;;;;;;;;;3.00;3.00;;;;;;;;5097979;27;47745;-73
2023/12/25 13:40:11;;;;;;;;;1.33;1.33;;;;;;;;5099392;27;45403;-72
2023/12/25 13:42:36;;;;;;;;;2.00;2.00;;;;;;;;5099730;27;45226;-72
2023/12/25 13:45:02;;;;;;;;;5.67;5.33;;;;;;;;5098842;27;45243;-73
2023/12/25 13:47:28;;;;;;;;;8.67;7.33;;;;;;;;5099130;27;45428;-73
2023/12/25 13:49:53;;;;;;;;;4.67;4.00;;;;;;;;5099529;27;45307;-73
2023/12/25 13:52:19;;;;;;;;;2.00;1.00;;;;;;;;5098009;27;45563;-72
2023/12/25 13:54:44;;;;;;;;;0.00;0.00;;;;;;;;5098115;27;46011;-72
2023/12/25 13:57:10;;;;;;;;;2.33;2.00;;;;;;;;5097652;27;46522;-73
2023/12/25 13:59:35;;;;;;;;;1.00;0.00;;;;;;;;5099184;27;45514;-73
2023/12/25 14:02:00;;;;;;;;;0.00;0.00;;;;;;;;5099429;27;45599;-73
2023/12/25 14:04:26;;;;;;;;;2.33;2.00;;;;;;;;5099232;27;45499;-73
2023/12/25 14:06:52;;;;;;;;;3.33;3.00;;;;;;;;5099159;27;46040;-72
2023/12/25 14:09:17;;;;;;;;;3.67;3.67;;;;;;;;5098773;27;45491;-72
2023/12/25 14:11:43;;;;;;;;;4.00;4.00;;;;;;;;5099045;27;45592;-72
2023/12/25 14:14:09;;;;;;;;;3.00;3.00;;;;;;;;5099125;27;45255;-73
2023/12/25 14:16:34;;;;;;;;;5.67;5.67;;;;;;;;5098616;27;45345;-72
2023/12/25 14:18:59;;;;;;;;;3.00;3.00;;;;;;;;5098809;27;45426;-72
2023/12/25 14:21:25;;;;;;;;;1.00;1.00;;;;;;;;5098970;27;45739;-72
2023/12/25 14:23:50;;;;;;;;;1.00;1.00;;;;;;;;5098694;27;45429;-72
2023/12/25 14:26:16;;;;;;;;;1.33;1.33;;;;;;;;5098617;27;45587;-72
2023/12/25 14:28:41;;;;;;;;;1.00;1.00;;;;;;;;5098830;27;45473;-72